NCAR-RAP Real-Time Weather Data

Output produced by METARs form (22 January 2018  03:50 UTC)
found at http://weather.rap.ucar.edu/surface/
 
Conditions at: KFMY observed 22 January 2018  02:53 UTC
Temperature: 19.4°C (67°F)
Dewpoint: 17.8°C (64°F) [RH = 90%]
Pressure (altimeter): 30.14 inches Hg (1020.7 mb)
[Sea-level pressure: 1020.7 mb]
Winds: from the E (90 degrees) at 6 MPH (5 knots; 2.6 m/s)
Visibility: 8 miles (13 km)
Ceiling: at least 12,000 feet AGL
Clouds: sky clear below 12,000 feet AGL
Present Weather: no significant weather observed at this time
KFMY 220253Z 09005KT 8SM CLR 19/18 A3014 RMK AO2 SLP207 T01940178 51008

Conditions at: KFMY observed 22 January 2018  01:53 UTC
Temperature: 20.0°C (68°F)
Dewpoint: 17.8°C (64°F) [RH = 87%]
Pressure (altimeter): 30.14 inches Hg (1020.7 mb)
[Sea-level pressure: 1020.6 mb]
Winds: from the E (80 degrees) at 6 MPH (5 knots; 2.6 m/s)
Visibility: 9 miles (14 km)
Ceiling: at least 12,000 feet AGL
Clouds: sky clear below 12,000 feet AGL
Present Weather: no significant weather observed at this time
KFMY 220153Z 08005KT 9SM CLR 20/18 A3014 RMK AO2 SLP206 T02000178

Conditions at: KFMY observed 22 January 2018  00:53 UTC
Temperature: 21.1°C (70°F)
Dewpoint: 17.8°C (64°F) [RH = 81%]
Pressure (altimeter): 30.13 inches Hg (1020.4 mb)
[Sea-level pressure: 1020.4 mb]
Winds: from the E (80 degrees) at 8 MPH (7 knots; 3.6 m/s)
Visibility: 9 miles (14 km)
Ceiling: at least 12,000 feet AGL
Clouds: sky clear below 12,000 feet AGL
Present Weather: no significant weather observed at this time
KFMY 220053Z 08007KT 9SM CLR 21/18 A3013 RMK AO2 SLP204 T02110178

Conditions at: KFMY observed 21 January 2018  23:53 UTC
Temperature: 22.2°C (72°F)
Dewpoint: 17.2°C (63°F) [RH = 73%]
Pressure (altimeter): 30.11 inches Hg (1019.7 mb)
[Sea-level pressure: 1019.9 mb]
Winds: from the ENE (70 degrees) at 7 MPH (6 knots; 3.1 m/s)
Visibility: 9 miles (14 km)
Ceiling: at least 12,000 feet AGL
Clouds: sky clear below 12,000 feet AGL
Present Weather: no significant weather observed at this time
KFMY 212353Z 07006KT 9SM CLR 22/17 A3011 RMK AO2 SLP199 T02220172 10267 20222 53007

Conditions at: KFMY observed 21 January 2018  22:53 UTC
Temperature: 23.3°C (74°F)
Dewpoint: 17.2°C (63°F) [RH = 69%]
Pressure (altimeter): 30.11 inches Hg (1019.7 mb)
[Sea-level pressure: 1019.6 mb]
Winds: from the E (80 degrees) at 10 MPH (9 knots; 4.7 m/s)
Visibility: 8 miles (13 km)
Ceiling: at least 12,000 feet AGL
Clouds: sky clear below 12,000 feet AGL
Present Weather: no significant weather observed at this time
KFMY 212253Z 08009KT 8SM CLR 23/17 A3011 RMK AO2 SLP196 T02330172

Conditions at: KFMY observed 21 January 2018  21:53 UTC
Temperature: 24.4°C (76°F)
Dewpoint: 17.2°C (63°F) [RH = 64%]
Pressure (altimeter): 30.10 inches Hg (1019.4 mb)
[Sea-level pressure: 1019.5 mb]
Winds: from the E (80 degrees) at 10 MPH (9 knots; 4.7 m/s)
Visibility: 8 miles (13 km)
Ceiling: at least 12,000 feet AGL
Clouds: sky clear below 12,000 feet AGL
Present Weather: no significant weather observed at this time
KFMY 212153Z 08009KT 8SM CLR 24/17 A3010 RMK AO2 SLP195 T02440172

Conditions at: KFMY observed 21 January 2018  20:53 UTC
Temperature: 26.7°C (80°F)
Dewpoint: 17.2°C (63°F) [RH = 56%]
Pressure (altimeter): 30.09 inches Hg (1019.0 mb)
[Sea-level pressure: 1019.2 mb]
Winds: from the E (90 degrees) at 13 MPH (11 knots; 5.7 m/s)
Visibility: 8 miles (13 km)
Ceiling: at least 12,000 feet AGL
Clouds: scattered clouds at 3600 feet AGL
Present Weather: no significant weather observed at this time
KFMY 212053Z 09011KT 8SM SCT036 27/17 A3009 RMK AO2 SLP192 T02670172 56021

Conditions at: KFMY observed 21 January 2018  19:53 UTC
Temperature: 25.6°C (78°F)
Dewpoint: 16.7°C (62°F) [RH = 58%]
Pressure (altimeter): 30.10 inches Hg (1019.4 mb)
[Sea-level pressure: 1019.6 mb]
Winds: from the ENE (60 degrees) at 7 MPH (6 knots; 3.1 m/s)
gusting to 18 MPH (16 knots; 8.3 m/s)
Visibility: 8 miles (13 km)
Ceiling: at least 12,000 feet AGL
Clouds: few clouds at 3500 feet AGL
few clouds at 4500 feet AGL
Present Weather: no significant weather observed at this time
KFMY 211953Z 06006G16KT 8SM FEW035 FEW045 26/17 A3010 RMK AO2 SLP196 T02560167

Conditions at: KFMY observed 21 January 2018  18:53 UTC
Temperature: 25.0°C (77°F)
Dewpoint: 16.7°C (62°F) [RH = 60%]
Pressure (altimeter): 30.13 inches Hg (1020.4 mb)
[Sea-level pressure: 1020.3 mb]
Winds: from the E (80 degrees) at 13 MPH (11 knots; 5.7 m/s)
Visibility: 8 miles (13 km)
Ceiling: 4500 feet AGL
Clouds: scattered clouds at 3200 feet AGL
broken clouds at 4500 feet AGL
Present Weather: no significant weather observed at this time
KFMY 211853Z 08011KT 8SM SCT032 BKN045 25/17 A3013 RMK AO2 SLP203 T02500167

Conditions at: KFMY observed 21 January 2018  18:08 UTC
Temperature: 25.0°C (77°F)
Dewpoint: 16.7°C (62°F) [RH = 60%]
Pressure (altimeter): 30.15 inches Hg (1021.1 mb)
Winds: from the ENE (70 degrees) at 8 MPH (7 knots; 3.6 m/s)
Visibility: 9 miles (14 km)
Ceiling: 3200 feet AGL
Clouds: broken clouds at 3200 feet AGL
broken clouds at 4900 feet AGL
Present Weather: no significant weather observed at this time
KFMY 211808Z 07007KT 9SM BKN032 BKN049 25/17 A3015 RMK AO2 T02500167

Conditions at: KFMY observed 21 January 2018  17:53 UTC
Temperature: 25.0°C (77°F)
Dewpoint: 17.2°C (63°F) [RH = 62%]
Pressure (altimeter): 30.15 inches Hg (1021.1 mb)
[Sea-level pressure: 1021.3 mb]
Winds: from the ENE (70 degrees) at 9 MPH (8 knots; 4.2 m/s)
Visibility: 9 miles (14 km)
Ceiling: 2900 feet AGL
Clouds: broken clouds at 2900 feet AGL
broken clouds at 5000 feet AGL
Present Weather: no significant weather observed at this time
KFMY 211753Z 07008KT 040V120 9SM BKN029 BKN050 25/17 A3015 RMK AO2 SLP213 T02500172 10261 20161 58023

Conditions at: KFMY observed 21 January 2018  17:43 UTC
Temperature: 24.4°C (76°F)
Dewpoint: 17.2°C (63°F) [RH = 64%]
Pressure (altimeter): 30.16 inches Hg (1021.4 mb)
Winds: from the ENE (70 degrees) at 10 MPH (9 knots; 4.7 m/s)
Visibility: 9 miles (14 km)
Ceiling: 2900 feet AGL
Clouds: broken clouds at 2900 feet AGL
broken clouds at 3500 feet AGL
broken clouds at 5000 feet AGL
Present Weather: no significant weather observed at this time
KFMY 211743Z 07009KT 9SM BKN029 BKN035 BKN050 24/17 A3016 RMK AO2 T02440172

Conditions at: KFMY observed 21 January 2018  16:53 UTC
Temperature: 24.4°C (76°F)
Dewpoint: 17.2°C (63°F) [RH = 64%]
Pressure (altimeter): 30.19 inches Hg (1022.4 mb)
[Sea-level pressure: 1022.5 mb]
Winds: from the E (80 degrees) at 9 MPH (8 knots; 4.2 m/s)
Visibility: 9 miles (14 km)
Ceiling: 4900 feet AGL
Clouds: overcast cloud deck at 4900 feet AGL
Present Weather: no significant weather observed at this time
KFMY 211653Z 08008KT 9SM OVC049 24/17 A3019 RMK AO2 SLP225 T02440172

Conditions at: KFMY observed 21 January 2018  15:53 UTC
Temperature: 23.3°C (74°F)
Dewpoint: 16.1°C (61°F) [RH = 64%]
Pressure (altimeter): 30.22 inches Hg (1023.5 mb)
[Sea-level pressure: 1023.4 mb]
Winds: from the ENE (60 degrees) at 9 MPH (8 knots; 4.2 m/s)
gusting to 22 MPH (19 knots; 9.9 m/s)
Visibility: 9 miles (14 km)
Ceiling: 4800 feet AGL
Clouds: broken clouds at 4800 feet AGL
Present Weather: no significant weather observed at this time
KFMY 211553Z 06008G19KT 9SM BKN048 23/16 A3022 RMK AO2 SLP234 T02330161

Conditions at: KFMY observed 21 January 2018  14:53 UTC
Temperature: 20.0°C (68°F)
Dewpoint: 15.0°C (59°F) [RH = 73%]
Pressure (altimeter): 30.22 inches Hg (1023.5 mb)
[Sea-level pressure: 1023.5 mb]
Winds: from the ENE (60 degrees) at 8 MPH (7 knots; 3.6 m/s)
Visibility: 9 miles (14 km)
Ceiling: 4800 feet AGL
Clouds: broken clouds at 4800 feet AGL
Present Weather: no significant weather observed at this time
KFMY 211453Z 06007KT 9SM BKN048 20/15 A3022 RMK AO2 SLP235 T02000150 51011

Conditions at: KFMY observed 21 January 2018  13:53 UTC
Temperature: 17.8°C (64°F)
Dewpoint: 14.4°C (58°F) [RH = 80%]
Pressure (altimeter): 30.21 inches Hg (1023.1 mb)
[Sea-level pressure: 1023.2 mb]
Winds: from the NE (50 degrees) at 7 MPH (6 knots; 3.1 m/s)
Visibility: 8 miles (13 km)
Ceiling: 4400 feet AGL
Clouds: few clouds at 2600 feet AGL
few clouds at 3200 feet AGL
overcast cloud deck at 4400 feet AGL
Present Weather: no significant weather observed at this time
KFMY 211353Z 05006KT 8SM FEW026 FEW032 OVC044 18/14 A3021 RMK AO2 SLP232 T01780144

Conditions at: KFMY observed 21 January 2018  12:53 UTC
Temperature: 16.1°C (61°F)
Dewpoint: 14.4°C (58°F) [RH = 90%]
Pressure (altimeter): 30.20 inches Hg (1022.8 mb)
[Sea-level pressure: 1022.7 mb]
Winds: from the NNE (30 degrees) at 7 MPH (6 knots; 3.1 m/s)
Visibility: 8 miles (13 km)
Ceiling: 4000 feet AGL
Clouds: broken clouds at 4000 feet AGL
Present Weather: no significant weather observed at this time
KFMY 211253Z 03006KT 8SM BKN040 16/14 A3020 RMK AO2 SLP227 T01610144

Conditions at: KFMY observed 21 January 2018  12:06 UTC
Temperature: 16.1°C (61°F)
Dewpoint: 13.9°C (57°F) [RH = 87%]
Pressure (altimeter): 30.19 inches Hg (1022.4 mb)
Winds: from the NNE (20 degrees) at 7 MPH (6 knots; 3.1 m/s)
Visibility: 9 miles (14 km)
Ceiling: 3700 feet AGL
Clouds: scattered clouds at 2700 feet AGL
broken clouds at 3700 feet AGL
broken clouds at 4300 feet AGL
Present Weather: no significant weather observed at this time
KFMY 211206Z 02006KT 9SM SCT027 BKN037 BKN043 16/14 A3019 RMK AO2 T01610139

Conditions at: KFMY observed 21 January 2018  11:53 UTC
Temperature: 16.1°C (61°F)
Dewpoint: 14.4°C (58°F) [RH = 90%]
Pressure (altimeter): 30.19 inches Hg (1022.4 mb)
[Sea-level pressure: 1022.4 mb]
Winds: from the NNE (20 degrees) at 7 MPH (6 knots; 3.1 m/s)
Visibility: 9 miles (14 km)
Ceiling: 2700 feet AGL
Clouds: broken clouds at 2700 feet AGL
overcast cloud deck at 3600 feet AGL
Present Weather: no significant weather observed at this time
KFMY 211153Z 02006KT 9SM BKN027 OVC036 16/14 A3019 RMK AO2 SLP224 T01610144 10172 20156 53009

Conditions at: KFMY observed 21 January 2018  11:09 UTC
Temperature: 16.1°C (61°F)
Dewpoint: 13.9°C (57°F) [RH = 87%]
Pressure (altimeter): 30.16 inches Hg (1021.4 mb)
Winds: from the NE (40 degrees) at 8 MPH (7 knots; 3.6 m/s)
Visibility: 9 miles (14 km)
Ceiling: 2900 feet AGL
Clouds: broken clouds at 2900 feet AGL
Present Weather: automated observation with no human augmentation;
there may or may not be significant weather present at this time
KFMY 211109Z AUTO 04007KT 9SM BKN029 16/14 A3016 RMK AO2 T01610139

Conditions at: KFMY observed 21 January 2018  10:53 UTC
Temperature: 16.1°C (61°F)
Dewpoint: 13.9°C (57°F) [RH = 87%]
Pressure (altimeter): 30.16 inches Hg (1021.4 mb)
[Sea-level pressure: 1021.4 mb]
Winds: from the NNE (30 degrees) at 7 MPH (6 knots; 3.1 m/s)
Visibility: 9 miles (14 km)
Ceiling: at least 12,000 feet AGL
Clouds: sky clear below 12,000 feet AGL
Present Weather: automated observation with no human augmentation;
there may or may not be significant weather present at this time
KFMY 211053Z AUTO 03006KT 9SM CLR 16/14 A3016 RMK AO2 SLP214 T01610139

Conditions at: KFMY observed 21 January 2018  09:53 UTC
Temperature: 15.6°C (60°F)
Dewpoint: 13.9°C (57°F) [RH = 90%]
Pressure (altimeter): 30.15 inches Hg (1021.1 mb)
[Sea-level pressure: 1021.2 mb]
Winds: from the NE (50 degrees) at 8 MPH (7 knots; 3.6 m/s)
Visibility: 9 miles (14 km)
Ceiling: at least 12,000 feet AGL
Clouds: sky clear below 12,000 feet AGL
Present Weather: automated observation with no human augmentation;
there may or may not be significant weather present at this time
KFMY 210953Z AUTO 05007KT 9SM CLR 16/14 A3015 RMK AO2 SLP212 T01560139

Conditions at: KFMY observed 21 January 2018  08:53 UTC
Temperature: 15.6°C (60°F)
Dewpoint: 13.9°C (57°F) [RH = 90%]
Pressure (altimeter): 30.16 inches Hg (1021.4 mb)
[Sea-level pressure: 1021.5 mb]
Winds: from the NNE (30 degrees) at 8 MPH (7 knots; 3.6 m/s)
Visibility: 9 miles (14 km)
Ceiling: at least 12,000 feet AGL
Clouds: sky clear below 12,000 feet AGL
Present Weather: automated observation with no human augmentation;
there may or may not be significant weather present at this time
KFMY 210853Z AUTO 03007KT 9SM CLR 16/14 A3016 RMK AO2 SLP215 T01560139 58010

Conditions at: KFMY observed 21 January 2018  07:53 UTC
Temperature: 16.1°C (61°F)
Dewpoint: 13.9°C (57°F) [RH = 87%]
Pressure (altimeter): 30.17 inches Hg (1021.8 mb)
[Sea-level pressure: 1021.7 mb]
Winds: from the NNE (30 degrees) at 6 MPH (5 knots; 2.6 m/s)
Visibility: 9 miles (14 km)
Ceiling: at least 12,000 feet AGL
Clouds: sky clear below 12,000 feet AGL
Present Weather: automated observation with no human augmentation;
there may or may not be significant weather present at this time
KFMY 210753Z AUTO 03005KT 9SM CLR 16/14 A3017 RMK AO2 SLP217 T01610139

Conditions at: KFMY observed 21 January 2018  06:53 UTC
Temperature: 16.7°C (62°F)
Dewpoint: 13.9°C (57°F) [RH = 84%]
Pressure (altimeter): 30.19 inches Hg (1022.4 mb)
[Sea-level pressure: 1022.5 mb]
Winds: from the NNE (20 degrees) at 5 MPH (4 knots; 2.1 m/s)
Visibility: 9 miles (14 km)
Ceiling: at least 12,000 feet AGL
Clouds: few clouds at 12000 feet AGL
Present Weather: automated observation with no human augmentation;
there may or may not be significant weather present at this time
KFMY 210653Z AUTO 02004KT 9SM FEW120 17/14 A3019 RMK AO2 SLP225 T01670139

Conditions at: KFMY observed 21 January 2018  05:53 UTC
Temperature: 16.7°C (62°F)
Dewpoint: 13.9°C (57°F) [RH = 84%]
Pressure (altimeter): 30.19 inches Hg (1022.4 mb)
[Sea-level pressure: 1022.5 mb]
Winds: calm
Visibility: 9 miles (14 km)
Ceiling: at least 12,000 feet AGL
Clouds: sky clear below 12,000 feet AGL
Present Weather: automated observation with no human augmentation;
there may or may not be significant weather present at this time
KFMY 210553Z AUTO 00000KT 9SM CLR 17/14 A3019 RMK AO2 SLP225 T01670139 10200 20167 56012

Conditions at: KFMY observed 21 January 2018  04:53 UTC
Temperature: 17.2°C (63°F)
Dewpoint: 13.9°C (57°F) [RH = 81%]
Pressure (altimeter): 30.20 inches Hg (1022.8 mb)
[Sea-level pressure: 1022.9 mb]
Winds: from the NE (50 degrees) at 7 MPH (6 knots; 3.1 m/s)
Visibility: 9 miles (14 km)
Ceiling: at least 12,000 feet AGL
Clouds: sky clear below 12,000 feet AGL
Present Weather: automated observation with no human augmentation;
there may or may not be significant weather present at this time
KFMY 210453Z AUTO 05006KT 9SM CLR 17/14 A3020 RMK AO2 SLP229 T01720139 402330122

Conditions at: KFMY observed 21 January 2018  03:53 UTC
Temperature: 18.3°C (65°F)
Dewpoint: 13.9°C (57°F) [RH = 76%]
Pressure (altimeter): 30.20 inches Hg (1022.8 mb)
[Sea-level pressure: 1022.8 mb]
Winds: from the E (90 degrees) at 8 MPH (7 knots; 3.6 m/s)
Visibility: 9 miles (14 km)
Ceiling: at least 12,000 feet AGL
Clouds: sky clear below 12,000 feet AGL
Present Weather: automated observation with no human augmentation;
there may or may not be significant weather present at this time
KFMY 210353Z AUTO 09007KT 9SM CLR 18/14 A3020 RMK AO2 SLP228 T01830139